Huvudsida
METAR-TAF:

METAR-TAF

Flygplatser :

Mehrabads flygplats

Teheran, Iran

latitud: 35-41N, longitud: 051-21E, höjd: 1204 m

Aktuellt väderrapport

Denna rapport gjordes för 26 minuter sedan, klockan 19:00 UTC
Stilla vind
Temperatur 10°C
Fuktighet 43%
Tryck 1025 hPa
Sikt: 6000 m

METAR: OIII 111900Z 00000KT 6000 NSC 10/M02 Q1025 A3027 NOSIG

Tid: 22:56 (19:26 UTC)

Väderprognos

Denna rapport gjordes för 1 timme och 56 minuter sedan, klockan 17:30 UTC
Prognos gäller från 11 kl. 18 UTC till 12 kl. 24 UTC
Vind 6 kt från nordväst
Sikt: 6000 m
Blir
från 12 kl. 03 UTC till 12 kl. 05 UTC
Sikt: 4000 m
torrdis
Blir
från 12 kl. 12 UTC till 12 kl. 14 UTC
Sikt: 6000 m

TAF: OIII 111730Z 1118/1224 32006KT 6000 NSC BECMG 1203/1205 4000 HZ BECMG 1212/1214 6000 NSC

Aktuella väderrapporter och prognoser från 4000 flygplatser (METAR- och TAF-rapporter).

De tillgängliga stationerna syns som gula och röda prickar på kartan.

För musen över prickarna för att se namnen på stationerna.

Klicka sedan för att få väderrapporter och prognoser.

För att ändra kartan: Klicka på de gröna knapparna med ett svart kors på för att zooma in; den gröna knappen med ett streck på för att zooma ut; eller på de gröna pilarna för angränsande kartor.


METAR-TAF: